sensor_id;sensor_type;location;lat;lon;timestamp;P1;durP1;ratioP1;P2;durP2;ratioP2
72388;SDS011;60566;48.062;9.930;2024-01-06T00:01:13;13.65;;;8.20;;
72388;SDS011;60566;48.062;9.930;2024-01-06T00:03:39;13.60;;;7.55;;
72388;SDS011;60566;48.062;9.930;2024-01-06T00:06:04;13.30;;;6.93;;
72388;SDS011;60566;48.062;9.930;2024-01-06T00:08:30;12.98;;;7.78;;
72388;SDS011;60566;48.062;9.930;2024-01-06T00:10:57;14.43;;;7.43;;
72388;SDS011;60566;48.062;9.930;2024-01-06T00:13:22;13.90;;;7.20;;
72388;SDS011;60566;48.062;9.930;2024-01-06T00:15:48;12.18;;;6.95;;
72388;SDS011;60566;48.062;9.930;2024-01-06T00:18:13;14.07;;;7.05;;
72388;SDS011;60566;48.062;9.930;2024-01-06T00:20:39;13.60;;;6.78;;
72388;SDS011;60566;48.062;9.930;2024-01-06T00:23:04;17.17;;;8.15;;
72388;SDS011;60566;48.062;9.930;2024-01-06T00:25:30;12.75;;;6.57;;
72388;SDS011;60566;48.062;9.930;2024-01-06T00:27:56;16.40;;;7.78;;
72388;SDS011;60566;48.062;9.930;2024-01-06T00:30:22;17.95;;;6.45;;
72388;SDS011;60566;48.062;9.930;2024-01-06T00:32:47;13.77;;;6.05;;
72388;SDS011;60566;48.062;9.930;2024-01-06T00:35:13;10.38;;;6.00;;
72388;SDS011;60566;48.062;9.930;2024-01-06T00:37:38;10.55;;;5.68;;
72388;SDS011;60566;48.062;9.930;2024-01-06T00:40:04;10.73;;;5.35;;
72388;SDS011;60566;48.062;9.930;2024-01-06T00:42:30;11.27;;;5.75;;
72388;SDS011;60566;48.062;9.930;2024-01-06T00:44:57;12.70;;;6.10;;
72388;SDS011;60566;48.062;9.930;2024-01-06T00:47:23;10.20;;;5.78;;
72388;SDS011;60566;48.062;9.930;2024-01-06T00:49:48;11.48;;;5.95;;
72388;SDS011;60566;48.062;9.930;2024-01-06T00:52:14;10.07;;;6.30;;
72388;SDS011;60566;48.062;9.930;2024-01-06T00:54:39;10.52;;;5.35;;
72388;SDS011;60566;48.062;9.930;2024-01-06T00:57:05;12.18;;;6.60;;
72388;SDS011;60566;48.062;9.930;2024-01-06T00:59:30;13.18;;;5.93;;
72388;SDS011;60566;48.062;9.930;2024-01-06T01:01:57;11.18;;;5.75;;
72388;SDS011;60566;48.062;9.930;2024-01-06T01:04:23;10.10;;;5.60;;
72388;SDS011;60566;48.062;9.930;2024-01-06T01:06:48;11.50;;;5.03;;
72388;SDS011;60566;48.062;9.930;2024-01-06T01:09:14;9.93;;;5.30;;
72388;SDS011;60566;48.062;9.930;2024-01-06T01:11:39;10.57;;;5.65;;
72388;SDS011;60566;48.062;9.930;2024-01-06T01:14:05;9.18;;;4.45;;
72388;SDS011;60566;48.062;9.930;2024-01-06T01:16:30;9.15;;;4.97;;
72388;SDS011;60566;48.062;9.930;2024-01-06T01:18:57;9.57;;;4.40;;
72388;SDS011;60566;48.062;9.930;2024-01-06T01:21:23;9.50;;;4.70;;
72388;SDS011;60566;48.062;9.930;2024-01-06T01:23:49;9.38;;;5.35;;
72388;SDS011;60566;48.062;9.930;2024-01-06T01:26:14;8.20;;;4.63;;
72388;SDS011;60566;48.062;9.930;2024-01-06T01:28:39;11.82;;;5.22;;
72388;SDS011;60566;48.062;9.930;2024-01-06T01:31:05;11.25;;;5.68;;
72388;SDS011;60566;48.062;9.930;2024-01-06T01:33:30;8.85;;;4.60;;
72388;SDS011;60566;48.062;9.930;2024-01-06T01:36:01;10.73;;;4.65;;
72388;SDS011;60566;48.062;9.930;2024-01-06T01:38:27;8.35;;;4.57;;
72388;SDS011;60566;48.062;9.930;2024-01-06T01:40:52;8.35;;;4.70;;
72388;SDS011;60566;48.062;9.930;2024-01-06T01:43:18;8.73;;;5.32;;
72388;SDS011;60566;48.062;9.930;2024-01-06T01:45:48;10.18;;;5.28;;
72388;SDS011;60566;48.062;9.930;2024-01-06T01:48:16;10.50;;;4.88;;
72388;SDS011;60566;48.062;9.930;2024-01-06T01:50:41;9.35;;;5.88;;
72388;SDS011;60566;48.062;9.930;2024-01-06T01:53:08;7.90;;;4.65;;
72388;SDS011;60566;48.062;9.930;2024-01-06T01:55:33;9.23;;;5.53;;
72388;SDS011;60566;48.062;9.930;2024-01-06T01:57:59;7.95;;;5.03;;
72388;SDS011;60566;48.062;9.930;2024-01-06T02:00:24;9.98;;;5.28;;
72388;SDS011;60566;48.062;9.930;2024-01-06T02:02:50;11.05;;;4.68;;
72388;SDS011;60566;48.062;9.930;2024-01-06T02:05:15;9.52;;;4.72;;
72388;SDS011;60566;48.062;9.930;2024-01-06T02:07:40;7.65;;;3.97;;
72388;SDS011;60566;48.062;9.930;2024-01-06T02:10:08;13.70;;;4.55;;
72388;SDS011;60566;48.062;9.930;2024-01-06T02:12:33;9.02;;;4.95;;
72388;SDS011;60566;48.062;9.930;2024-01-06T02:14:59;9.00;;;5.20;;
72388;SDS011;60566;48.062;9.930;2024-01-06T02:17:24;10.05;;;6.47;;
72388;SDS011;60566;48.062;9.930;2024-01-06T02:19:50;7.45;;;4.15;;
72388;SDS011;60566;48.062;9.930;2024-01-06T02:22:16;9.70;;;4.25;;
72388;SDS011;60566;48.062;9.930;2024-01-06T02:24:42;7.47;;;4.03;;
72388;SDS011;60566;48.062;9.930;2024-01-06T02:27:07;8.85;;;3.03;;
72388;SDS011;60566;48.062;9.930;2024-01-06T02:29:33;5.95;;;3.17;;
72388;SDS011;60566;48.062;9.930;2024-01-06T02:31:58;9.40;;;3.20;;
72388;SDS011;60566;48.062;9.930;2024-01-06T02:34:24;6.70;;;3.55;;
72388;SDS011;60566;48.062;9.930;2024-01-06T02:36:49;7.65;;;3.38;;
72388;SDS011;60566;48.062;9.930;2024-01-06T02:39:16;9.35;;;3.65;;
72388;SDS011;60566;48.062;9.930;2024-01-06T02:41:41;7.82;;;3.78;;
72388;SDS011;60566;48.062;9.930;2024-01-06T02:44:07;7.93;;;3.92;;
72388;SDS011;60566;48.062;9.930;2024-01-06T02:46:32;7.43;;;3.47;;
72388;SDS011;60566;48.062;9.930;2024-01-06T02:48:58;7.40;;;3.63;;
72388;SDS011;60566;48.062;9.930;2024-01-06T02:51:23;7.05;;;3.03;;
72388;SDS011;60566;48.062;9.930;2024-01-06T02:53:49;7.05;;;3.03;;
72388;SDS011;60566;48.062;9.930;2024-01-06T02:56:19;5.90;;;3.15;;
72388;SDS011;60566;48.062;9.930;2024-01-06T02:58:47;5.50;;;3.00;;
72388;SDS011;60566;48.062;9.930;2024-01-06T03:01:12;6.60;;;3.88;;
72388;SDS011;60566;48.062;9.930;2024-01-06T03:03:38;5.50;;;2.92;;
72388;SDS011;60566;48.062;9.930;2024-01-06T03:06:03;7.55;;;3.58;;
72388;SDS011;60566;48.062;9.930;2024-01-06T03:08:29;6.35;;;3.10;;
72388;SDS011;60566;48.062;9.930;2024-01-06T03:10:54;5.43;;;3.35;;
72388;SDS011;60566;48.062;9.930;2024-01-06T03:13:21;6.93;;;3.38;;
72388;SDS011;60566;48.062;9.930;2024-01-06T03:15:46;6.57;;;3.63;;
72388;SDS011;60566;48.062;9.930;2024-01-06T03:18:12;5.20;;;2.90;;
72388;SDS011;60566;48.062;9.930;2024-01-06T03:20:38;5.75;;;3.10;;
72388;SDS011;60566;48.062;9.930;2024-01-06T03:23:03;6.35;;;3.65;;
72388;SDS011;60566;48.062;9.930;2024-01-06T03:25:28;6.85;;;3.47;;
72388;SDS011;60566;48.062;9.930;2024-01-06T03:27:54;7.95;;;3.22;;
72388;SDS011;60566;48.062;9.930;2024-01-06T03:30:21;7.15;;;3.47;;
72388;SDS011;60566;48.062;9.930;2024-01-06T03:32:46;7.45;;;4.10;;
72388;SDS011;60566;48.062;9.930;2024-01-06T03:35:11;5.93;;;3.58;;
72388;SDS011;60566;48.062;9.930;2024-01-06T03:37:37;5.80;;;3.22;;
72388;SDS011;60566;48.062;9.930;2024-01-06T03:40:03;6.53;;;3.63;;
72388;SDS011;60566;48.062;9.930;2024-01-06T03:42:28;6.93;;;4.00;;
72388;SDS011;60566;48.062;9.930;2024-01-06T03:44:54;6.93;;;3.55;;
72388;SDS011;60566;48.062;9.930;2024-01-06T03:47:21;7.18;;;3.42;;
72388;SDS011;60566;48.062;9.930;2024-01-06T03:49:46;7.97;;;3.55;;
72388;SDS011;60566;48.062;9.930;2024-01-06T03:52:12;7.68;;;3.83;;
72388;SDS011;60566;48.062;9.930;2024-01-06T03:54:37;7.30;;;3.33;;
72388;SDS011;60566;48.062;9.930;2024-01-06T03:57:02;7.15;;;3.60;;
72388;SDS011;60566;48.062;9.930;2024-01-06T03:59:28;8.40;;;3.05;;
72388;SDS011;60566;48.062;9.930;2024-01-06T04:01:53;7.30;;;3.35;;
72388;SDS011;60566;48.062;9.930;2024-01-06T04:04:20;4.97;;;2.65;;
72388;SDS011;60566;48.062;9.930;2024-01-06T04:06:46;5.38;;;2.78;;
72388;SDS011;60566;48.062;9.930;2024-01-06T04:09:11;5.70;;;3.00;;
72388;SDS011;60566;48.062;9.930;2024-01-06T04:11:37;4.90;;;3.10;;
72388;SDS011;60566;48.062;9.930;2024-01-06T04:14:02;5.40;;;3.10;;
72388;SDS011;60566;48.062;9.930;2024-01-06T04:16:28;7.63;;;3.45;;
72388;SDS011;60566;48.062;9.930;2024-01-06T04:18:53;8.55;;;2.88;;
72388;SDS011;60566;48.062;9.930;2024-01-06T04:21:20;7.15;;;3.03;;
72388;SDS011;60566;48.062;9.930;2024-01-06T04:23:45;6.88;;;3.00;;
72388;SDS011;60566;48.062;9.930;2024-01-06T04:26:11;6.60;;;2.75;;
72388;SDS011;60566;48.062;9.930;2024-01-06T04:28:36;5.60;;;2.72;;
72388;SDS011;60566;48.062;9.930;2024-01-06T04:31:01;6.10;;;2.55;;
72388;SDS011;60566;48.062;9.930;2024-01-06T04:33:27;4.63;;;2.78;;
72388;SDS011;60566;48.062;9.930;2024-01-06T04:35:52;7.07;;;3.03;;
72388;SDS011;60566;48.062;9.930;2024-01-06T04:38:19;4.43;;;2.58;;
72388;SDS011;60566;48.062;9.930;2024-01-06T04:40:45;4.55;;;2.30;;
72388;SDS011;60566;48.062;9.930;2024-01-06T04:43:10;4.25;;;2.40;;
72388;SDS011;60566;48.062;9.930;2024-01-06T04:45:36;5.07;;;2.53;;
72388;SDS011;60566;48.062;9.930;2024-01-06T04:48:01;7.18;;;2.47;;
72388;SDS011;60566;48.062;9.930;2024-01-06T04:50:27;4.82;;;2.50;;
72388;SDS011;60566;48.062;9.930;2024-01-06T04:52:52;5.10;;;2.53;;
72388;SDS011;60566;48.062;9.930;2024-01-06T04:55:19;4.38;;;2.65;;
72388;SDS011;60566;48.062;9.930;2024-01-06T04:57:44;6.00;;;2.78;;
72388;SDS011;60566;48.062;9.930;2024-01-06T05:00:13;6.38;;;3.35;;
72388;SDS011;60566;48.062;9.930;2024-01-06T05:02:39;6.32;;;2.88;;
72388;SDS011;60566;48.062;9.930;2024-01-06T05:05:04;4.40;;;3.13;;
72388;SDS011;60566;48.062;9.930;2024-01-06T05:07:30;5.40;;;3.42;;
72388;SDS011;60566;48.062;9.930;2024-01-06T05:09:55;4.55;;;3.33;;
72388;SDS011;60566;48.062;9.930;2024-01-06T05:12:22;5.10;;;2.70;;
72388;SDS011;60566;48.062;9.930;2024-01-06T05:14:47;4.93;;;2.90;;
72388;SDS011;60566;48.062;9.930;2024-01-06T05:17:16;5.68;;;2.65;;
72388;SDS011;60566;48.062;9.930;2024-01-06T05:19:41;4.22;;;2.40;;
72388;SDS011;60566;48.062;9.930;2024-01-06T05:22:06;3.88;;;1.92;;
72388;SDS011;60566;48.062;9.930;2024-01-06T05:24:32;4.45;;;2.50;;
72388;SDS011;60566;48.062;9.930;2024-01-06T05:26:57;4.00;;;1.92;;
72388;SDS011;60566;48.062;9.930;2024-01-06T05:29:24;4.88;;;2.35;;
72388;SDS011;60566;48.062;9.930;2024-01-06T05:31:49;4.57;;;2.42;;
72388;SDS011;60566;48.062;9.930;2024-01-06T05:34:15;4.30;;;2.20;;
72388;SDS011;60566;48.062;9.930;2024-01-06T05:36:43;4.88;;;2.10;;
72388;SDS011;60566;48.062;9.930;2024-01-06T05:39:09;3.60;;;2.00;;
72388;SDS011;60566;48.062;9.930;2024-01-06T05:41:38;6.10;;;2.17;;
72388;SDS011;60566;48.062;9.930;2024-01-06T05:44:04;3.88;;;2.08;;
72388;SDS011;60566;48.062;9.930;2024-01-06T05:46:31;4.85;;;2.55;;
72388;SDS011;60566;48.062;9.930;2024-01-06T05:48:56;6.35;;;3.15;;
72388;SDS011;60566;48.062;9.930;2024-01-06T05:51:22;4.65;;;2.17;;
72388;SDS011;60566;48.062;9.930;2024-01-06T05:53:47;5.03;;;2.50;;
72388;SDS011;60566;48.062;9.930;2024-01-06T05:56:21;4.10;;;2.65;;
72388;SDS011;60566;48.062;9.930;2024-01-06T05:58:47;6.05;;;2.70;;
72388;SDS011;60566;48.062;9.930;2024-01-06T06:01:12;4.53;;;2.30;;
72388;SDS011;60566;48.062;9.930;2024-01-06T06:03:39;5.65;;;2.47;;
72388;SDS011;60566;48.062;9.930;2024-01-06T06:06:05;3.65;;;2.13;;
72388;SDS011;60566;48.062;9.930;2024-01-06T06:08:30;4.72;;;2.45;;
72388;SDS011;60566;48.062;9.930;2024-01-06T06:10:56;4.47;;;2.38;;
72388;SDS011;60566;48.062;9.930;2024-01-06T06:13:21;5.35;;;2.13;;
72388;SDS011;60566;48.062;9.930;2024-01-06T06:15:46;6.13;;;2.42;;
72388;SDS011;60566;48.062;9.930;2024-01-06T06:18:12;5.78;;;2.10;;
72388;SDS011;60566;48.062;9.930;2024-01-06T06:20:38;5.53;;;2.40;;
72388;SDS011;60566;48.062;9.930;2024-01-06T06:23:04;5.18;;;2.10;;
72388;SDS011;60566;48.062;9.930;2024-01-06T06:25:29;5.85;;;2.63;;
72388;SDS011;60566;48.062;9.930;2024-01-06T06:27:55;6.32;;;2.58;;
72388;SDS011;60566;48.062;9.930;2024-01-06T06:30:20;5.55;;;3.40;;
72388;SDS011;60566;48.062;9.930;2024-01-06T06:32:46;7.35;;;2.95;;
72388;SDS011;60566;48.062;9.930;2024-01-06T06:35:11;3.58;;;2.25;;
72388;SDS011;60566;48.062;9.930;2024-01-06T06:37:38;4.88;;;2.47;;
72388;SDS011;60566;48.062;9.930;2024-01-06T06:40:04;6.43;;;2.45;;
72388;SDS011;60566;48.062;9.930;2024-01-06T06:42:30;4.85;;;2.17;;
72388;SDS011;60566;48.062;9.930;2024-01-06T06:44:56;5.40;;;2.08;;
72388;SDS011;60566;48.062;9.930;2024-01-06T06:47:21;7.20;;;2.63;;
72388;SDS011;60566;48.062;9.930;2024-01-06T06:49:47;5.70;;;2.22;;
72388;SDS011;60566;48.062;9.930;2024-01-06T06:52:12;5.32;;;2.50;;
72388;SDS011;60566;48.062;9.930;2024-01-06T06:54:39;7.47;;;2.92;;
72388;SDS011;60566;48.062;9.930;2024-01-06T06:57:04;6.40;;;3.13;;
72388;SDS011;60566;48.062;9.930;2024-01-06T06:59:30;5.95;;;2.42;;
72388;SDS011;60566;48.062;9.930;2024-01-06T07:01:55;4.40;;;2.70;;
72388;SDS011;60566;48.062;9.930;2024-01-06T07:04:21;5.38;;;2.63;;
72388;SDS011;60566;48.062;9.930;2024-01-06T07:06:46;7.53;;;3.15;;
72388;SDS011;60566;48.062;9.930;2024-01-06T07:09:11;4.90;;;3.20;;
72388;SDS011;60566;48.062;9.930;2024-01-06T07:11:38;5.45;;;3.15;;
72388;SDS011;60566;48.062;9.930;2024-01-06T07:14:04;5.90;;;3.00;;
72388;SDS011;60566;48.062;9.930;2024-01-06T07:16:29;7.38;;;3.15;;
72388;SDS011;60566;48.062;9.930;2024-01-06T07:18:55;7.47;;;3.78;;
72388;SDS011;60566;48.062;9.930;2024-01-06T07:21:20;8.02;;;4.28;;
72388;SDS011;60566;48.062;9.930;2024-01-06T07:23:45;6.63;;;3.67;;
72388;SDS011;60566;48.062;9.930;2024-01-06T07:26:11;7.32;;;3.97;;
72388;SDS011;60566;48.062;9.930;2024-01-06T07:28:38;7.65;;;3.45;;
72388;SDS011;60566;48.062;9.930;2024-01-06T07:31:03;7.57;;;3.67;;
72388;SDS011;60566;48.062;9.930;2024-01-06T07:33:28;7.03;;;3.95;;
72388;SDS011;60566;48.062;9.930;2024-01-06T07:35:54;6.10;;;3.67;;
72388;SDS011;60566;48.062;9.930;2024-01-06T07:38:19;8.10;;;3.38;;
72388;SDS011;60566;48.062;9.930;2024-01-06T07:40:45;6.82;;;3.40;;
72388;SDS011;60566;48.062;9.930;2024-01-06T07:43:10;5.68;;;3.25;;
72388;SDS011;60566;48.062;9.930;2024-01-06T07:45:40;7.93;;;4.93;;
72388;SDS011;60566;48.062;9.930;2024-01-06T07:48:06;8.20;;;4.63;;
72388;SDS011;60566;48.062;9.930;2024-01-06T07:50:31;5.68;;;3.30;;
72388;SDS011;60566;48.062;9.930;2024-01-06T07:52:57;8.27;;;4.60;;
72388;SDS011;60566;48.062;9.930;2024-01-06T07:55:22;6.95;;;4.05;;
72388;SDS011;60566;48.062;9.930;2024-01-06T07:57:48;8.20;;;3.88;;
72388;SDS011;60566;48.062;9.930;2024-01-06T08:00:13;7.18;;;3.78;;
72388;SDS011;60566;48.062;9.930;2024-01-06T08:02:40;5.32;;;3.65;;
72388;SDS011;60566;48.062;9.930;2024-01-06T08:05:06;9.20;;;3.38;;
72388;SDS011;60566;48.062;9.930;2024-01-06T08:07:31;6.75;;;3.88;;
72388;SDS011;60566;48.062;9.930;2024-01-06T08:09:57;9.02;;;3.90;;
72388;SDS011;60566;48.062;9.930;2024-01-06T08:12:22;7.93;;;4.63;;
72388;SDS011;60566;48.062;9.930;2024-01-06T08:14:48;8.38;;;4.50;;
72388;SDS011;60566;48.062;9.930;2024-01-06T08:17:13;8.98;;;4.80;;
72388;SDS011;60566;48.062;9.930;2024-01-06T08:19:40;5.82;;;3.83;;
72388;SDS011;60566;48.062;9.930;2024-01-06T08:22:06;5.57;;;3.17;;
72388;SDS011;60566;48.062;9.930;2024-01-06T08:24:31;5.63;;;3.80;;
72388;SDS011;60566;48.062;9.930;2024-01-06T08:26:56;8.07;;;3.72;;
72388;SDS011;60566;48.062;9.930;2024-01-06T08:29:22;10.85;;;5.75;;
72388;SDS011;60566;48.062;9.930;2024-01-06T08:31:50;14.85;;;8.65;;
72388;SDS011;60566;48.062;9.930;2024-01-06T08:34:16;9.10;;;5.63;;
72388;SDS011;60566;48.062;9.930;2024-01-06T08:36:43;9.13;;;5.70;;
72388;SDS011;60566;48.062;9.930;2024-01-06T08:39:08;7.28;;;4.45;;
72388;SDS011;60566;48.062;9.930;2024-01-06T08:41:34;11.02;;;4.50;;
72388;SDS011;60566;48.062;9.930;2024-01-06T08:43:59;6.65;;;3.92;;
72388;SDS011;60566;48.062;9.930;2024-01-06T08:46:24;7.22;;;4.10;;
72388;SDS011;60566;48.062;9.930;2024-01-06T08:48:50;8.00;;;4.15;;
72388;SDS011;60566;48.062;9.930;2024-01-06T08:51:15;8.90;;;4.75;;
72388;SDS011;60566;48.062;9.930;2024-01-06T08:53:42;9.63;;;4.68;;
72388;SDS011;60566;48.062;9.930;2024-01-06T08:56:08;7.78;;;4.07;;
72388;SDS011;60566;48.062;9.930;2024-01-06T08:58:33;8.00;;;4.10;;
72388;SDS011;60566;48.062;9.930;2024-01-06T09:00:59;7.32;;;4.28;;
72388;SDS011;60566;48.062;9.930;2024-01-06T09:03:24;7.82;;;3.90;;
72388;SDS011;60566;48.062;9.930;2024-01-06T09:05:50;7.05;;;3.60;;
72388;SDS011;60566;48.062;9.930;2024-01-06T09:08:16;9.40;;;4.88;;
72388;SDS011;60566;48.062;9.930;2024-01-06T09:10:43;8.40;;;4.97;;
72388;SDS011;60566;48.062;9.930;2024-01-06T09:13:08;6.95;;;4.20;;
72388;SDS011;60566;48.062;9.930;2024-01-06T09:15:34;7.18;;;4.97;;
72388;SDS011;60566;48.062;9.930;2024-01-06T09:17:59;7.68;;;4.60;;
72388;SDS011;60566;48.062;9.930;2024-01-06T09:20:24;8.05;;;4.40;;
72388;SDS011;60566;48.062;9.930;2024-01-06T09:22:50;13.68;;;5.75;;
72388;SDS011;60566;48.062;9.930;2024-01-06T09:25:15;14.95;;;5.93;;
72388;SDS011;60566;48.062;9.930;2024-01-06T09:27:42;13.02;;;6.75;;
72388;SDS011;60566;48.062;9.930;2024-01-06T09:30:08;13.93;;;6.32;;
72388;SDS011;60566;48.062;9.930;2024-01-06T09:32:34;11.68;;;6.15;;
72388;SDS011;60566;48.062;9.930;2024-01-06T09:34:59;9.45;;;4.93;;
72388;SDS011;60566;48.062;9.930;2024-01-06T09:37:24;7.72;;;3.88;;
72388;SDS011;60566;48.062;9.930;2024-01-06T09:39:50;9.13;;;3.78;;
72388;SDS011;60566;48.062;9.930;2024-01-06T09:42:15;7.72;;;3.78;;
72388;SDS011;60566;48.062;9.930;2024-01-06T09:44:42;8.82;;;3.65;;
72388;SDS011;60566;48.062;9.930;2024-01-06T09:47:08;7.88;;;4.28;;
72388;SDS011;60566;48.062;9.930;2024-01-06T09:49:35;9.15;;;4.53;;
72388;SDS011;60566;48.062;9.930;2024-01-06T09:52:03;6.68;;;3.85;;
72388;SDS011;60566;48.062;9.930;2024-01-06T09:54:30;7.88;;;4.45;;
72388;SDS011;60566;48.062;9.930;2024-01-06T09:56:55;8.95;;;4.63;;
72388;SDS011;60566;48.062;9.930;2024-01-06T09:59:24;7.10;;;4.22;;
72388;SDS011;60566;48.062;9.930;2024-01-06T10:01:51;8.30;;;4.60;;
72388;SDS011;60566;48.062;9.930;2024-01-06T10:04:16;6.55;;;3.20;;
72388;SDS011;60566;48.062;9.930;2024-01-06T10:06:42;6.55;;;3.67;;
72388;SDS011;60566;48.062;9.930;2024-01-06T10:09:07;8.77;;;3.53;;
72388;SDS011;60566;48.062;9.930;2024-01-06T10:11:32;4.80;;;3.05;;
72388;SDS011;60566;48.062;9.930;2024-01-06T10:14:01;5.97;;;3.72;;
72388;SDS011;60566;48.062;9.930;2024-01-06T10:16:27;6.57;;;3.63;;
72388;SDS011;60566;48.062;9.930;2024-01-06T10:18:54;5.35;;;3.08;;
72388;SDS011;60566;48.062;9.930;2024-01-06T10:21:20;8.45;;;3.28;;
72388;SDS011;60566;48.062;9.930;2024-01-06T10:23:45;7.95;;;3.45;;
72388;SDS011;60566;48.062;9.930;2024-01-06T10:26:12;5.90;;;3.10;;
72388;SDS011;60566;48.062;9.930;2024-01-06T10:28:38;5.85;;;3.63;;
72388;SDS011;60566;48.062;9.930;2024-01-06T10:31:03;8.10;;;3.97;;
72388;SDS011;60566;48.062;9.930;2024-01-06T10:33:29;5.75;;;2.83;;
72388;SDS011;60566;48.062;9.930;2024-01-06T10:35:59;6.22;;;3.22;;
72388;SDS011;60566;48.062;9.930;2024-01-06T10:38:25;9.98;;;3.40;;
72388;SDS011;60566;48.062;9.930;2024-01-06T10:40:57;6.82;;;3.38;;
72388;SDS011;60566;48.062;9.930;2024-01-06T10:43:23;7.18;;;3.40;;
72388;SDS011;60566;48.062;9.930;2024-01-06T10:45:50;9.43;;;3.53;;
72388;SDS011;60566;48.062;9.930;2024-01-06T10:48:16;9.63;;;3.17;;
72388;SDS011;60566;48.062;9.930;2024-01-06T10:50:44;9.05;;;3.10;;
72388;SDS011;60566;48.062;9.930;2024-01-06T10:53:11;5.65;;;3.03;;
72388;SDS011;60566;48.062;9.930;2024-01-06T10:55:38;9.02;;;4.35;;
72388;SDS011;60566;48.062;9.930;2024-01-06T10:58:04;6.90;;;3.60;;
72388;SDS011;60566;48.062;9.930;2024-01-06T11:00:30;7.40;;;3.22;;
72388;SDS011;60566;48.062;9.930;2024-01-06T11:02:55;9.75;;;3.65;;
72388;SDS011;60566;48.062;9.930;2024-01-06T11:05:21;8.85;;;3.63;;
72388;SDS011;60566;48.062;9.930;2024-01-06T11:07:47;8.55;;;3.95;;
72388;SDS011;60566;48.062;9.930;2024-01-06T11:10:15;8.75;;;3.03;;
72388;SDS011;60566;48.062;9.930;2024-01-06T11:12:41;7.57;;;3.45;;
72388;SDS011;60566;48.062;9.930;2024-01-06T11:15:07;5.43;;;3.05;;
72388;SDS011;60566;48.062;9.930;2024-01-06T11:17:51;7.65;;;3.47;;
72388;SDS011;60566;48.062;9.930;2024-01-06T11:20:17;5.25;;;2.70;;
72388;SDS011;60566;48.062;9.930;2024-01-06T11:22:42;6.47;;;2.80;;
72388;SDS011;60566;48.062;9.930;2024-01-06T11:25:08;9.65;;;4.25;;
72388;SDS011;60566;48.062;9.930;2024-01-06T11:27:39;6.43;;;3.40;;
72388;SDS011;60566;48.062;9.930;2024-01-06T11:30:07;7.55;;;3.50;;
72388;SDS011;60566;48.062;9.930;2024-01-06T11:32:33;6.57;;;3.30;;
72388;SDS011;60566;48.062;9.930;2024-01-06T11:35:04;5.97;;;3.33;;
72388;SDS011;60566;48.062;9.930;2024-01-06T11:37:34;6.55;;;2.88;;
72388;SDS011;60566;48.062;9.930;2024-01-06T11:40:00;5.93;;;3.10;;
72388;SDS011;60566;48.062;9.930;2024-01-06T11:42:31;14.82;;;7.13;;
72388;SDS011;60566;48.062;9.930;2024-01-06T11:44:58;8.80;;;5.35;;
72388;SDS011;60566;48.062;9.930;2024-01-06T11:47:27;8.05;;;3.67;;
72388;SDS011;60566;48.062;9.930;2024-01-06T11:49:54;8.57;;;3.42;;
72388;SDS011;60566;48.062;9.930;2024-01-06T11:52:19;6.82;;;3.75;;
72388;SDS011;60566;48.062;9.930;2024-01-06T11:54:45;5.03;;;3.08;;
72388;SDS011;60566;48.062;9.930;2024-01-06T11:57:11;6.43;;;3.65;;
72388;SDS011;60566;48.062;9.930;2024-01-06T11:59:36;6.50;;;3.35;;
72388;SDS011;60566;48.062;9.930;2024-01-06T12:02:03;8.60;;;4.20;;
72388;SDS011;60566;48.062;9.930;2024-01-06T12:04:29;8.82;;;4.22;;
72388;SDS011;60566;48.062;9.930;2024-01-06T12:07:04;5.50;;;3.20;;
72388;SDS011;60566;48.062;9.930;2024-01-06T12:09:30;7.22;;;3.55;;
72388;SDS011;60566;48.062;9.930;2024-01-06T12:12:00;8.52;;;3.10;;
72388;SDS011;60566;48.062;9.930;2024-01-06T12:14:26;4.93;;;2.92;;
72388;SDS011;60566;48.062;9.930;2024-01-06T12:16:51;5.70;;;2.95;;
72388;SDS011;60566;48.062;9.930;2024-01-06T12:19:18;10.02;;;3.10;;
72388;SDS011;60566;48.062;9.930;2024-01-06T12:21:44;6.05;;;3.65;;
72388;SDS011;60566;48.062;9.930;2024-01-06T12:24:14;7.53;;;3.42;;
72388;SDS011;60566;48.062;9.930;2024-01-06T12:26:40;8.27;;;3.40;;
72388;SDS011;60566;48.062;9.930;2024-01-06T12:29:06;7.95;;;3.38;;
72388;SDS011;60566;48.062;9.930;2024-01-06T12:31:31;5.88;;;3.40;;
72388;SDS011;60566;48.062;9.930;2024-01-06T12:33:57;5.90;;;3.15;;
72388;SDS011;60566;48.062;9.930;2024-01-06T12:36:24;5.35;;;3.28;;
72388;SDS011;60566;48.062;9.930;2024-01-06T12:38:49;4.82;;;3.13;;
72388;SDS011;60566;48.062;9.930;2024-01-06T12:41:15;5.80;;;3.50;;
72388;SDS011;60566;48.062;9.930;2024-01-06T12:43:41;6.93;;;2.97;;
72388;SDS011;60566;48.062;9.930;2024-01-06T12:46:06;8.25;;;4.40;;
72388;SDS011;60566;48.062;9.930;2024-01-06T12:48:32;9.40;;;4.55;;
72388;SDS011;60566;48.062;9.930;2024-01-06T12:50:57;7.20;;;3.72;;
72388;SDS011;60566;48.062;9.930;2024-01-06T12:53:24;6.47;;;3.40;;
72388;SDS011;60566;48.062;9.930;2024-01-06T12:55:49;6.55;;;3.40;;
72388;SDS011;60566;48.062;9.930;2024-01-06T12:58:15;6.65;;;3.95;;
72388;SDS011;60566;48.062;9.930;2024-01-06T13:00:40;10.68;;;5.25;;
72388;SDS011;60566;48.062;9.930;2024-01-06T13:03:05;9.50;;;4.00;;
72388;SDS011;60566;48.062;9.930;2024-01-06T13:05:31;7.10;;;3.95;;
72388;SDS011;60566;48.062;9.930;2024-01-06T13:07:56;9.35;;;3.50;;
72388;SDS011;60566;48.062;9.930;2024-01-06T13:10:23;5.20;;;3.50;;
72388;SDS011;60566;48.062;9.930;2024-01-06T13:12:49;9.02;;;3.97;;
72388;SDS011;60566;48.062;9.930;2024-01-06T13:15:14;5.57;;;3.38;;
72388;SDS011;60566;48.062;9.930;2024-01-06T13:17:40;6.35;;;3.10;;
72388;SDS011;60566;48.062;9.930;2024-01-06T13:20:05;9.23;;;4.60;;
72388;SDS011;60566;48.062;9.930;2024-01-06T13:22:32;9.45;;;4.82;;
72388;SDS011;60566;48.062;9.930;2024-01-06T13:24:57;10.55;;;4.28;;
72388;SDS011;60566;48.062;9.930;2024-01-06T13:27:24;8.10;;;5.00;;
72388;SDS011;60566;48.062;9.930;2024-01-06T13:29:49;7.63;;;4.13;;
72388;SDS011;60566;48.062;9.930;2024-01-06T13:32:15;8.27;;;4.13;;
72388;SDS011;60566;48.062;9.930;2024-01-06T13:34:40;6.03;;;3.92;;
72388;SDS011;60566;48.062;9.930;2024-01-06T13:37:06;7.47;;;4.50;;
72388;SDS011;60566;48.062;9.930;2024-01-06T13:39:32;8.98;;;3.28;;
72388;SDS011;60566;48.062;9.930;2024-01-06T13:41:57;6.45;;;3.85;;
72388;SDS011;60566;48.062;9.930;2024-01-06T13:44:24;7.78;;;4.22;;
72388;SDS011;60566;48.062;9.930;2024-01-06T13:46:49;7.03;;;3.85;;
72388;SDS011;60566;48.062;9.930;2024-01-06T13:49:15;6.30;;;4.15;;
72388;SDS011;60566;48.062;9.930;2024-01-06T13:51:40;7.40;;;3.83;;
72388;SDS011;60566;48.062;9.930;2024-01-06T13:54:06;8.30;;;3.83;;
72388;SDS011;60566;48.062;9.930;2024-01-06T13:56:31;6.82;;;3.45;;
72388;SDS011;60566;48.062;9.930;2024-01-06T13:58:57;7.78;;;3.70;;
72388;SDS011;60566;48.062;9.930;2024-01-06T14:01:25;6.95;;;4.00;;
72388;SDS011;60566;48.062;9.930;2024-01-06T14:03:51;10.10;;;4.18;;
72388;SDS011;60566;48.062;9.930;2024-01-06T14:06:16;9.85;;;4.07;;
72388;SDS011;60566;48.062;9.930;2024-01-06T14:08:42;8.65;;;3.72;;
72388;SDS011;60566;48.062;9.930;2024-01-06T14:11:07;9.60;;;3.80;;
72388;SDS011;60566;48.062;9.930;2024-01-06T14:13:32;7.00;;;3.83;;
72388;SDS011;60566;48.062;9.930;2024-01-06T14:15:58;6.93;;;3.85;;
72388;SDS011;60566;48.062;9.930;2024-01-06T14:18:24;10.38;;;4.78;;
72388;SDS011;60566;48.062;9.930;2024-01-06T14:20:50;7.88;;;4.70;;
72388;SDS011;60566;48.062;9.930;2024-01-06T14:23:15;7.90;;;4.03;;
72388;SDS011;60566;48.062;9.930;2024-01-06T14:25:41;11.48;;;5.13;;
72388;SDS011;60566;48.062;9.930;2024-01-06T14:28:09;9.10;;;5.25;;
72388;SDS011;60566;48.062;9.930;2024-01-06T14:30:34;12.02;;;4.75;;
72388;SDS011;60566;48.062;9.930;2024-01-06T14:33:00;8.65;;;3.63;;
72388;SDS011;60566;48.062;9.930;2024-01-06T14:35:27;7.35;;;4.43;;
72388;SDS011;60566;48.062;9.930;2024-01-06T14:37:52;10.45;;;5.25;;